createdAt,value
2019-04-25T00:02:04.922Z,68.30
2019-04-25T00:04:36.933Z,68.00
2019-04-25T00:07:08.257Z,67.70
2019-04-25T00:09:42.715Z,67.30
2019-04-25T00:12:13.779Z,66.80
2019-04-25T00:14:44.750Z,67.80
2019-04-25T00:17:18.689Z,66.70
2019-04-25T00:19:51.052Z,66.80
2019-04-25T00:22:27.091Z,66.30
2019-04-25T00:24:59.472Z,65.90
2019-04-25T00:27:31.999Z,65.70
2019-04-25T00:30:03.136Z,65.20
2019-04-25T00:32:34.145Z,64.80
2019-04-25T00:35:05.918Z,64.80
2019-04-25T00:37:36.974Z,64.50
2019-04-25T00:40:11.864Z,64.10
2019-04-25T00:42:46.782Z,63.60
2019-04-25T00:45:18.047Z,64.00
2019-04-25T00:47:53.276Z,63.00
2019-04-25T00:50:25.633Z,62.60
2019-04-25T00:53:05.949Z,62.30
2019-04-25T00:55:36.846Z,61.90
2019-04-25T00:58:11.481Z,61.80
2019-04-25T01:00:44.974Z,61.70
2019-04-25T01:03:17.994Z,61.60
2019-04-25T01:05:49.624Z,61.30
2019-04-25T01:08:21.952Z,61.00
2019-04-25T01:10:55.611Z,61.40
2019-04-25T01:13:27.496Z,60.50
2019-04-25T01:15:58.675Z,60.20
2019-04-25T01:18:35.461Z,60.10
2019-04-25T01:21:07.077Z,60.00
2019-04-25T01:23:37.946Z,59.60
2019-04-25T01:26:19.559Z,59.30
2019-04-25T01:28:51.829Z,59.10
2019-04-25T01:31:24.928Z,59.00
2019-04-25T01:33:57.096Z,58.70
2019-04-25T01:36:29.630Z,58.30
2019-04-25T01:39:04.214Z,57.80
2019-04-25T01:41:39.968Z,58.30
2019-04-25T01:44:12.261Z,56.70
2019-04-25T01:46:44.952Z,57.20
2019-04-25T01:49:16.155Z,56.30
2019-04-25T01:51:48.799Z,56.60
2019-04-25T01:54:19.840Z,57.20
2019-04-25T01:56:55.896Z,57.00
2019-04-25T01:59:27.280Z,56.80
2019-04-25T02:01:58.856Z,56.50
2019-04-25T02:04:30.028Z,56.60
2019-04-25T02:07:03.600Z,56.50
2019-04-25T02:09:35.329Z,55.50
2019-04-25T02:12:07.390Z,55.90
2019-04-25T02:14:38.539Z,55.90
2019-04-25T02:17:09.511Z,55.30
2019-04-25T02:19:44.098Z,53.50
2019-04-25T02:22:15.550Z,53.90
2019-04-25T02:24:46.580Z,54.90
2019-04-25T02:27:21.117Z,54.40
2019-04-25T02:29:53.376Z,54.10
2019-04-25T02:32:24.949Z,53.60
2019-04-25T02:35:00.511Z,54.00
2019-04-25T02:37:28.504Z,53.60
2019-04-25T02:40:01.461Z,53.10
2019-04-25T02:42:34.327Z,52.90
2019-04-25T02:45:11.523Z,53.70
2019-04-25T02:47:59.702Z,52.70
2019-04-25T02:50:34.382Z,53.50
2019-04-25T02:53:08.460Z,52.30
2019-04-25T02:55:46.200Z,52.90
2019-04-25T02:58:18.464Z,52.80
2019-04-25T03:00:57.396Z,51.90
2019-04-25T03:03:24.444Z,52.40
2019-04-25T03:06:01.479Z,52.00
2019-04-25T03:08:35.234Z,51.40
2019-04-25T03:11:09.222Z,51.10
2019-04-25T03:13:38.783Z,51.00
2019-04-25T03:16:11.084Z,50.40
2019-04-25T03:18:44.338Z,49.70
2019-04-25T03:21:17.583Z,50.50
2019-04-25T03:23:50.652Z,51.00
2019-04-25T03:26:21.549Z,50.70
2019-04-25T03:28:53.762Z,49.30
2019-04-25T03:31:27.223Z,49.60
2019-04-25T03:34:07.845Z,48.70
2019-04-25T03:36:35.826Z,49.80
2019-04-25T03:39:16.511Z,49.10
2019-04-25T03:41:50.853Z,47.10
2019-04-25T03:44:23.685Z,48.30
2019-04-25T03:46:55.672Z,49.10
2019-04-25T03:49:26.668Z,49.70
2019-04-25T03:51:57.822Z,49.30
2019-04-25T03:54:33.431Z,49.60
2019-04-25T03:57:06.377Z,44.80
2019-04-25T03:59:37.307Z,47.20
2019-04-25T04:02:13.044Z,47.80
2019-04-25T04:04:46.830Z,47.30
2019-04-25T04:14:00.152Z,42.80
2019-04-25T04:16:34.178Z,45.80
2019-04-25T04:19:06.741Z,44.50
2019-04-25T04:21:40.838Z,43.00
2019-04-25T04:24:14.109Z,44.50
2019-04-25T04:26:49.423Z,45.10
2019-04-25T04:29:25.083Z,45.00
2019-04-25T04:31:57.506Z,46.80
2019-04-25T04:34:28.359Z,41.20
2019-04-25T04:37:03.729Z,39.80
2019-04-25T04:39:35.680Z,40.90
2019-04-25T04:42:07.571Z,41.70
2019-04-25T04:44:39.634Z,41.70
2019-04-25T04:47:10.774Z,43.90
2019-04-25T04:49:41.912Z,44.60
2019-04-25T04:52:14.412Z,43.50
2019-04-25T04:54:45.820Z,44.60
2019-04-25T04:57:28.865Z,43.40
2019-04-25T04:59:53.479Z,42.80
2019-04-25T05:02:26.515Z,42.70
2019-04-25T05:05:00.223Z,41.20
2019-04-25T05:07:38.458Z,42.30
2019-04-25T05:10:20.947Z,42.40
2019-04-25T05:12:53.265Z,43.00
2019-04-25T05:15:24.806Z,42.40
2019-04-25T05:18:00.723Z,43.00
2019-04-25T05:20:31.972Z,42.70
2019-04-25T05:23:09.638Z,42.30
2019-04-25T05:25:44.105Z,39.20
2019-04-25T05:28:23.725Z,43.20
2019-04-25T05:30:55.885Z,41.10
2019-04-25T05:33:26.949Z,41.00
2019-04-25T05:35:58.048Z,39.30
2019-04-25T05:38:33.266Z,35.40
2019-04-25T05:41:05.777Z,41.90
2019-04-25T05:43:36.715Z,41.50
2019-04-25T05:46:10.873Z,39.80
2019-04-25T05:48:41.816Z,39.40
2019-04-25T05:51:13.639Z,37.30
2019-04-25T05:53:47.180Z,39.20
2019-04-25T05:56:18.624Z,39.40
2019-04-25T05:58:54.987Z,41.10
2019-04-25T06:01:29.221Z,39.00
2019-04-25T06:04:00.478Z,39.80
2019-04-25T06:06:31.437Z,40.90
2019-04-25T06:09:04.145Z,38.40
2019-04-25T06:11:36.669Z,39.40
2019-04-25T06:14:14.401Z,39.20
2019-04-25T06:16:45.783Z,37.30
2019-04-25T06:19:19.694Z,38.20
2019-04-25T06:21:53.511Z,39.20
2019-04-25T06:24:27.307Z,38.10
2019-04-25T06:27:01.847Z,38.70
2019-04-25T06:29:34.793Z,36.60
2019-04-25T06:32:08.898Z,36.80
2019-04-25T06:34:40.035Z,36.20
2019-04-25T06:37:11.254Z,37.50
2019-04-25T06:39:44.109Z,38.10
2019-04-25T06:42:14.600Z,37.60
2019-04-25T06:44:47.140Z,35.20
2019-04-25T06:47:21.366Z,34.30
2019-04-25T06:49:55.444Z,36.60
2019-04-25T06:52:30.660Z,37.70
2019-04-25T06:54:59.161Z,37.30
2019-04-25T06:57:32.087Z,38.70
2019-04-25T07:00:04.322Z,36.30
2019-04-25T07:02:35.203Z,36.30
2019-04-25T07:05:25.631Z,37.40
2019-04-25T07:07:45.479Z,38.10
2019-04-25T07:10:16.726Z,39.50
2019-04-25T07:12:51.857Z,39.00
2019-04-25T07:15:26.968Z,37.20
2019-04-25T07:18:00.408Z,33.40
2019-04-25T07:20:32.246Z,36.20
2019-04-25T07:23:09.225Z,36.50
2019-04-25T07:25:44.067Z,37.00
2019-04-25T07:28:23.815Z,36.40
2019-04-25T07:30:52.700Z,36.70
2019-04-25T07:36:47.171Z,37.80
2019-04-25T07:39:21.328Z,36.50
2019-04-25T07:41:54.061Z,39.00
2019-04-25T07:44:38.654Z,38.90
2019-04-25T07:46:59.685Z,34.50
2019-04-25T07:49:33.112Z,36.70
2019-04-25T07:52:04.567Z,36.30
2019-04-25T07:54:36.321Z,37.90
2019-04-25T07:57:08.613Z,37.80
2019-04-25T07:59:39.805Z,37.90
2019-04-25T08:02:10.760Z,38.10
2019-04-25T08:04:44.528Z,38.20
2019-04-25T08:10:50.255Z,34.80
2019-04-25T08:13:23.333Z,36.80
2019-04-25T08:15:55.687Z,36.80
2019-04-25T08:18:28.607Z,37.50
2019-04-25T08:21:01.144Z,37.00
2019-04-25T08:23:35.995Z,36.40
2019-04-25T08:26:04.703Z,35.40
2019-04-25T08:28:48.945Z,38.00
2019-04-25T08:31:09.136Z,38.00
2019-04-25T08:33:41.447Z,38.50
2019-04-25T08:36:13.672Z,37.90
2019-04-25T08:38:44.854Z,37.50
2019-04-25T08:41:16.063Z,37.90
2019-04-25T08:43:51.265Z,37.30
2019-04-25T08:46:23.537Z,38.30
2019-04-25T08:48:56.105Z,37.10
2019-04-25T08:51:28.901Z,37.30
2019-04-25T08:54:04.233Z,36.50
2019-04-25T08:56:36.519Z,35.80
2019-04-25T08:59:09.220Z,35.60
2019-04-25T09:01:42.118Z,37.10
2019-04-25T09:04:18.149Z,36.20
2019-04-25T09:06:49.404Z,35.00
2019-04-25T09:09:20.435Z,34.20
2019-04-25T09:11:51.231Z,35.90
2019-04-25T09:14:24.572Z,35.40
2019-04-25T09:16:55.510Z,35.20
2019-04-25T09:19:26.502Z,36.00
2019-04-25T09:21:58.819Z,34.20
2019-04-25T09:24:31.284Z,36.20
2019-04-25T09:27:03.729Z,34.20
2019-04-25T09:29:36.466Z,36.30
2019-04-25T09:32:08.104Z,36.10
2019-04-25T09:34:39.941Z,35.80
2019-04-25T09:37:20.093Z,35.90
2019-04-25T09:39:53.785Z,36.30
2019-04-25T09:42:24.889Z,36.20
2019-04-25T09:44:57.469Z,36.10
2019-04-25T09:47:28.594Z,35.50
2019-04-25T09:49:59.913Z,35.60
2019-04-25T09:52:34.177Z,36.50
2019-04-25T09:55:05.752Z,36.20
2019-04-25T09:57:38.946Z,35.40
2019-04-25T10:00:13.255Z,36.10
2019-04-25T10:02:44.668Z,35.80
2019-04-25T10:05:17.409Z,36.40
2019-04-25T10:07:48.963Z,36.80
2019-04-25T10:10:20.121Z,36.90
2019-04-25T10:12:54.893Z,36.80
2019-04-25T10:15:28.531Z,36.80
2019-04-25T10:17:59.495Z,37.80
2019-04-25T10:20:30.514Z,37.10
2019-04-25T10:29:41.301Z,37.70
2019-04-25T10:32:04.328Z,37.90
2019-04-25T10:34:35.524Z,36.70
2019-04-25T10:37:07.134Z,37.20
2019-04-25T10:39:39.177Z,36.90
2019-04-25T10:42:10.824Z,37.60
2019-04-25T10:44:41.881Z,37.30
2019-04-25T10:47:14.235Z,38.00
2019-04-25T10:49:45.914Z,38.30
2019-04-25T10:52:17.393Z,38.50
2019-04-25T10:54:48.189Z,37.90
2019-04-25T10:57:22.240Z,39.30
2019-04-25T11:00:00.414Z,38.90
2019-04-25T11:02:26.384Z,39.70
2019-04-25T11:04:58.958Z,39.10
2019-04-25T11:07:30.014Z,39.30
2019-04-25T11:10:01.092Z,39.30
2019-04-25T11:12:34.897Z,39.50
2019-04-25T11:15:08.969Z,39.30
2019-04-25T11:17:39.902Z,39.50
2019-04-25T11:20:12.214Z,39.80
2019-04-25T11:22:44.749Z,40.00
2019-04-25T11:25:15.470Z,39.90
2019-04-25T11:27:49.577Z,40.50
2019-04-25T11:30:20.274Z,40.10
2019-04-25T11:32:58.777Z,40.60
2019-04-25T11:35:41.872Z,40.50
2019-04-25T11:38:14.087Z,40.80
2019-04-25T11:40:48.078Z,41.40
2019-04-25T11:43:18.754Z,40.90
2019-04-25T11:45:49.598Z,41.00
2019-04-25T11:48:20.441Z,41.20
2019-04-25T11:50:52.452Z,41.40
2019-04-25T11:53:24.994Z,41.60
2019-04-25T11:55:56.403Z,41.70
2019-04-25T11:58:27.642Z,41.90
2019-04-25T12:00:58.776Z,41.90
2019-04-25T12:03:29.650Z,42.10
2019-04-25T12:06:00.809Z,42.20
2019-04-25T12:08:31.635Z,42.20
2019-04-25T12:11:02.579Z,42.40
2019-04-25T12:13:34.548Z,42.50
2019-04-25T12:16:05.620Z,42.60
2019-04-25T12:18:36.647Z,42.70
2019-04-25T12:21:07.790Z,42.70
2019-04-25T12:23:38.613Z,42.80
2019-04-25T12:26:09.856Z,42.90
2019-04-25T12:28:41.020Z,42.90
2019-04-25T12:31:13.288Z,43.00
2019-04-25T12:33:46.290Z,43.10
2019-04-25T12:36:17.019Z,43.40
2019-04-25T12:38:48.355Z,42.90
2019-04-25T12:41:19.415Z,42.60
2019-04-25T12:43:52.792Z,42.20
2019-04-25T12:46:25.865Z,42.20
2019-04-25T12:48:57.698Z,43.00
2019-04-25T12:51:28.793Z,42.50
2019-04-25T12:54:00.003Z,42.40
2019-04-25T12:56:34.219Z,43.00
2019-04-25T12:59:08.544Z,42.40
2019-04-25T13:01:43.406Z,43.00
2019-04-25T13:04:14.509Z,43.90
2019-04-25T13:06:46.802Z,43.30
2019-04-25T13:09:17.945Z,43.30
2019-04-25T13:11:48.935Z,43.40
2019-04-25T13:14:19.980Z,43.50
2019-04-25T13:16:51.129Z,43.70
2019-04-25T13:19:24.646Z,43.90
2019-04-25T13:21:54.769Z,43.90
2019-04-25T13:24:26.013Z,44.30
2019-04-25T13:26:58.553Z,44.20
2019-04-25T13:29:33.202Z,44.40
2019-04-25T13:32:06.218Z,44.30
2019-04-25T13:34:40.276Z,45.10
2019-04-25T13:37:11.349Z,44.70
2019-04-25T13:39:44.175Z,45.10
2019-04-25T13:42:16.529Z,45.60
2019-04-25T13:44:47.689Z,45.50
2019-04-25T13:47:19.779Z,46.80
2019-04-25T13:49:50.860Z,47.50
2019-04-25T13:52:22.778Z,46.10
2019-04-25T13:54:54.446Z,46.90
2019-04-25T13:57:26.155Z,47.40
2019-04-25T13:59:57.256Z,48.00
2019-04-25T14:02:28.911Z,47.60
2019-04-25T14:05:00.149Z,47.60
2019-04-25T14:07:31.916Z,47.40
2019-04-25T14:10:03.291Z,48.20
2019-04-25T14:12:34.447Z,47.80
2019-04-25T14:15:07.513Z,47.90
2019-04-25T14:17:40.161Z,48.30
2019-04-25T14:20:11.551Z,48.20
2019-04-25T14:22:43.195Z,47.70
2019-04-25T14:25:15.412Z,48.50
2019-04-25T14:27:46.494Z,48.50
2019-04-25T14:30:19.498Z,48.50
2019-04-25T14:32:50.464Z,49.70
2019-04-25T14:35:21.649Z,49.30
2019-04-25T14:37:54.002Z,49.00
2019-04-25T14:40:25.853Z,48.80
2019-04-25T14:42:57.914Z,49.20
2019-04-25T14:45:41.557Z,49.30
2019-04-25T14:48:00.990Z,49.60
2019-04-25T14:50:31.940Z,49.60
2019-04-25T14:53:02.895Z,49.50
2019-04-25T14:55:36.610Z,48.90
2019-04-25T14:58:09.117Z,50.30
2019-04-25T15:00:41.460Z,51.40
2019-04-25T15:03:12.446Z,49.90
2019-04-25T15:05:43.661Z,49.60
2019-04-25T15:08:14.700Z,50.60
2019-04-25T15:10:47.082Z,49.80
2019-04-25T15:13:18.122Z,50.10
2019-04-25T15:15:49.004Z,50.10
2019-04-25T15:18:19.905Z,50.70
2019-04-25T15:20:51.090Z,51.30
2019-04-25T15:23:23.180Z,50.40
2019-04-25T15:25:54.666Z,51.90
2019-04-25T15:28:27.487Z,51.80
2019-04-25T15:30:58.949Z,52.20
2019-04-25T15:33:30.305Z,52.40
2019-04-25T15:36:03.749Z,51.70
2019-04-25T15:38:35.880Z,51.20
2019-04-25T15:41:09.046Z,51.70
2019-04-25T15:43:41.795Z,52.80
2019-04-25T15:46:13.994Z,51.20
2019-04-25T15:48:45.165Z,52.60
2019-04-25T15:51:16.175Z,50.80
2019-04-25T15:53:47.145Z,53.60
2019-04-25T15:56:18.325Z,52.60
2019-04-25T15:58:49.013Z,53.10
2019-04-25T16:01:20.240Z,51.70
2019-04-25T16:03:52.547Z,52.30
2019-04-25T16:06:23.661Z,52.20
2019-04-25T16:08:54.755Z,51.60
2019-04-25T16:11:26.560Z,51.40
2019-04-25T16:13:57.476Z,52.90
2019-04-25T16:16:28.613Z,52.90
2019-04-25T16:18:59.678Z,53.20
2019-04-25T16:21:31.302Z,52.20
2019-04-25T16:24:06.201Z,53.30
2019-04-25T16:26:37.309Z,53.00
2019-04-25T16:29:08.591Z,52.60
2019-04-25T16:31:39.738Z,52.40
2019-04-25T16:34:10.753Z,52.40
2019-04-25T16:36:41.859Z,52.10
2019-04-25T16:39:14.195Z,52.80
2019-04-25T16:41:44.997Z,53.20
2019-04-25T16:44:17.521Z,52.80
2019-04-25T16:46:48.560Z,52.50
2019-04-25T16:49:19.690Z,52.50
2019-04-25T16:51:50.663Z,53.10
2019-04-25T16:54:21.693Z,53.40
2019-04-25T16:56:53.836Z,53.40
2019-04-25T16:59:29.473Z,53.40
2019-04-25T17:02:00.645Z,54.10
2019-04-25T17:04:33.208Z,55.50
2019-04-25T17:07:04.389Z,54.90
2019-04-25T17:09:35.980Z,53.60
2019-04-25T17:12:07.819Z,53.10
2019-04-25T17:14:40.065Z,53.10
2019-04-25T17:17:12.442Z,53.80
2019-04-25T17:19:47.485Z,54.10
2019-04-25T17:22:18.875Z,54.60
2019-04-25T17:24:50.003Z,54.90
2019-04-25T17:27:21.064Z,54.70
2019-04-25T17:29:51.963Z,55.20
2019-04-25T17:32:24.294Z,53.80
2019-04-25T17:34:56.564Z,53.50
2019-04-25T17:37:29.115Z,55.10
2019-04-25T17:40:01.875Z,56.20
2019-04-25T17:42:33.740Z,56.60
2019-04-25T17:45:08.228Z,56.30
2019-04-25T17:47:51.676Z,56.70
2019-04-25T17:50:13.075Z,58.40
2019-04-25T17:52:43.970Z,57.10
2019-04-25T17:55:15.222Z,56.50
2019-04-25T17:57:46.219Z,57.40
2019-04-25T18:00:20.894Z,56.90
2019-04-25T18:02:58.748Z,57.10
2019-04-25T18:05:24.268Z,56.80
2019-04-25T18:07:55.545Z,56.70
2019-04-25T18:10:26.778Z,57.60
2019-04-25T18:12:57.874Z,57.40
2019-04-25T18:15:30.330Z,56.60
2019-04-25T18:18:02.904Z,56.40
2019-04-25T18:20:35.287Z,54.90
2019-04-25T18:23:07.659Z,55.30
2019-04-25T18:25:38.667Z,54.30
2019-04-25T18:28:11.366Z,54.60
2019-04-25T18:30:43.273Z,54.90
2019-04-25T18:33:15.760Z,54.70
2019-04-25T18:35:48.094Z,54.70
2019-04-25T18:38:20.761Z,54.70
2019-04-25T18:40:51.551Z,55.10
2019-04-25T18:43:22.469Z,54.90
2019-04-25T18:45:54.656Z,54.60
2019-04-25T18:48:29.516Z,54.50
2019-04-25T18:51:00.819Z,54.70
2019-04-25T18:53:34.263Z,54.70
2019-04-25T18:56:04.918Z,54.70
2019-04-25T18:58:35.438Z,54.30
2019-04-25T19:01:07.629Z,54.60
2019-04-25T19:03:41.572Z,54.70
2019-04-25T19:06:33.473Z,54.70
2019-04-25T19:09:05.156Z,54.70
2019-04-25T19:11:36.021Z,54.70
2019-04-25T19:14:07.279Z,54.70
2019-04-25T19:16:39.800Z,54.80
2019-04-25T19:19:11.278Z,55.30
2019-04-25T19:21:43.446Z,54.30
2019-04-25T19:24:14.748Z,54.60
2019-04-25T19:26:48.111Z,54.50
2019-04-25T19:29:19.174Z,54.70
2019-04-25T19:31:51.895Z,55.10
2019-04-25T19:34:22.199Z,55.40
2019-04-25T19:36:59.027Z,55.30
2019-04-25T19:39:32.303Z,54.80
2019-04-25T19:42:06.011Z,55.50
2019-04-25T19:44:37.372Z,54.80
2019-04-25T19:47:08.130Z,55.30
2019-04-25T19:49:38.863Z,55.10
2019-04-25T19:52:10.103Z,54.90
2019-04-25T19:54:41.949Z,55.00
2019-04-25T19:57:12.953Z,55.00
2019-04-25T19:59:44.658Z,54.40
2019-04-25T20:02:17.844Z,54.70
2019-04-25T20:04:51.123Z,54.20
2019-04-25T20:07:23.821Z,54.40
2019-04-25T20:09:56.602Z,56.00
2019-04-25T20:12:29.799Z,55.10
2019-04-25T20:15:00.828Z,55.00
2019-04-25T20:17:31.815Z,54.90
2019-04-25T20:20:02.874Z,55.50
2019-04-25T20:22:33.887Z,55.80
2019-04-25T20:25:05.285Z,55.30
2019-04-25T20:27:36.404Z,55.30
2019-04-25T20:30:08.355Z,55.10
2019-04-25T20:32:39.610Z,55.20
2019-04-25T20:35:10.860Z,55.20
2019-04-25T20:37:45.965Z,55.20
2019-04-25T20:40:17.409Z,55.00
2019-04-25T20:42:48.299Z,55.00
2019-04-25T20:45:20.211Z,54.90
2019-04-25T20:47:52.066Z,54.70
2019-04-25T20:50:23.268Z,54.60
2019-04-25T20:52:55.019Z,54.70
2019-04-25T20:55:26.373Z,55.30
2019-04-25T20:57:57.884Z,54.60
2019-04-25T21:00:31.711Z,54.70
2019-04-25T21:03:02.683Z,54.90
2019-04-25T21:05:33.526Z,54.60
2019-04-25T21:08:04.690Z,55.00
2019-04-25T21:10:35.748Z,54.90
2019-04-25T21:13:08.475Z,55.10
2019-04-25T21:15:42.300Z,55.30
2019-04-25T21:18:15.462Z,54.80
2019-04-25T21:20:46.511Z,55.20
2019-04-25T21:23:17.535Z,56.30
2019-04-25T21:25:48.543Z,57.10
2019-04-25T21:28:22.117Z,56.60
2019-04-25T21:30:53.046Z,56.60
2019-04-25T21:33:24.052Z,56.90
2019-04-25T21:35:55.522Z,57.10
2019-04-25T21:38:26.843Z,57.50
2019-04-25T21:40:59.902Z,56.40
2019-04-25T21:43:32.674Z,58.50
2019-04-25T21:46:04.924Z,56.60
2019-04-25T21:48:36.111Z,60.10
2019-04-25T21:51:08.974Z,57.30
2019-04-25T21:53:39.753Z,61.60
2019-04-25T21:56:10.662Z,61.50
2019-04-25T21:58:41.842Z,61.00
2019-04-25T22:01:14.406Z,58.80
2019-04-25T22:03:45.572Z,57.90
2019-04-25T22:06:17.887Z,58.60
2019-04-25T22:08:48.964Z,59.60
2019-04-25T22:11:19.820Z,59.70
2019-04-25T22:13:52.276Z,63.80
2019-04-25T22:16:23.636Z,61.90
2019-04-25T22:18:55.503Z,61.60
2019-04-25T22:21:37.875Z,63.50
2019-04-25T22:24:08.918Z,65.10
2019-04-25T22:26:33.663Z,65.10
2019-04-25T22:29:05.461Z,61.30
2019-04-25T22:31:38.073Z,60.20
2019-04-25T22:34:11.386Z,59.10
2019-04-25T22:36:42.869Z,59.40
2019-04-25T22:39:16.800Z,59.60
2019-04-25T22:41:49.139Z,58.90
2019-04-25T22:44:21.860Z,58.80
2019-04-25T22:46:54.420Z,58.90
2019-04-25T22:49:25.431Z,60.10
2019-04-25T22:51:56.160Z,60.20
2019-04-25T22:54:28.867Z,59.90
2019-04-25T22:57:00.077Z,59.20
2019-04-25T22:59:34.548Z,59.10
2019-04-25T23:02:05.504Z,58.80
2019-04-25T23:04:38.266Z,59.20
2019-04-25T23:07:10.009Z,59.30
2019-04-25T23:09:41.789Z,59.50
2019-04-25T23:12:13.359Z,58.60
2019-04-25T23:14:44.924Z,58.70
2019-04-25T23:17:15.950Z,58.50
2019-04-25T23:19:47.602Z,59.10
2019-04-25T23:22:18.373Z,59.00
2019-04-25T23:24:51.022Z,58.60
2019-04-25T23:27:23.184Z,60.70
2019-04-25T23:29:55.187Z,62.80
2019-04-25T23:32:26.677Z,63.20
2019-04-25T23:34:58.441Z,61.70
2019-04-25T23:37:29.311Z,60.80
2019-04-25T23:40:00.434Z,60.80
2019-04-25T23:42:40.516Z,61.10
2019-04-25T23:45:12.423Z,61.70
2019-04-25T23:47:43.422Z,61.00
2019-04-25T23:50:15.019Z,62.00
2019-04-25T23:52:46.051Z,61.40
2019-04-25T23:55:21.897Z,60.60
2019-04-25T23:57:54.000Z,61.20
